createdAt,value
2019-02-21T00:01:25.186Z,8.60
2019-02-21T00:03:51.947Z,8.60
2019-02-21T00:06:18.518Z,8.70
2019-02-21T00:08:45.172Z,8.70
2019-02-21T00:11:11.838Z,8.70
2019-02-21T00:13:38.363Z,8.80
2019-02-21T00:16:04.927Z,8.60
2019-02-21T00:18:31.456Z,8.70
2019-02-21T00:20:58.020Z,8.60
2019-02-21T00:23:24.751Z,8.60
2019-02-21T00:25:51.420Z,8.60
2019-02-21T00:28:18.193Z,8.60
2019-02-21T00:30:44.817Z,8.60
2019-02-21T00:33:11.440Z,8.60
2019-02-21T00:35:38.110Z,8.60
2019-02-21T00:38:05.028Z,8.60
2019-02-21T00:40:31.902Z,8.70
2019-02-21T00:42:58.429Z,8.60
2019-02-21T00:45:25.104Z,8.60
2019-02-21T00:47:51.723Z,8.60
2019-02-21T00:50:18.245Z,8.50
2019-02-21T00:52:44.852Z,8.50
2019-02-21T00:55:11.377Z,8.50
2019-02-21T00:57:38.027Z,8.60
2019-02-21T01:00:08.909Z,8.50
2019-02-21T01:02:37.032Z,8.50
2019-02-21T01:05:04.597Z,8.50
2019-02-21T01:07:31.121Z,8.50
2019-02-21T01:09:57.899Z,8.40
2019-02-21T01:12:24.296Z,8.40
2019-02-21T01:14:50.871Z,8.40
2019-02-21T01:17:17.396Z,8.40
2019-02-21T01:19:44.017Z,8.40
2019-02-21T01:22:10.586Z,8.50
2019-02-21T01:24:37.246Z,8.50
2019-02-21T01:27:03.769Z,8.40
2019-02-21T01:29:30.333Z,8.40
2019-02-21T01:31:56.896Z,8.60
2019-02-21T01:34:23.364Z,8.40
2019-02-21T01:36:49.889Z,8.40
2019-02-21T01:39:16.893Z,8.50
2019-02-21T01:41:43.417Z,8.50
2019-02-21T01:44:09.946Z,8.40
2019-02-21T01:46:36.525Z,8.40
2019-02-21T01:49:03.037Z,8.40
2019-02-21T01:51:29.568Z,8.40
2019-02-21T01:53:56.266Z,8.40
2019-02-21T01:56:23.140Z,8.30
2019-02-21T01:58:49.944Z,8.30
2019-02-21T02:01:16.462Z,8.30
2019-02-21T02:03:42.984Z,8.40
2019-02-21T02:06:09.458Z,8.40
2019-02-21T02:08:36.006Z,8.50
2019-02-21T02:11:02.689Z,8.40
2019-02-21T02:13:29.205Z,8.40
2019-02-21T02:15:55.879Z,8.40
2019-02-21T02:18:26.169Z,8.40
2019-02-21T02:20:52.749Z,8.50
2019-02-21T02:23:20.970Z,8.40
2019-02-21T02:25:47.592Z,8.40
2019-02-21T02:28:14.153Z,8.30
2019-02-21T02:30:42.507Z,8.30
2019-02-21T02:33:09.379Z,8.40
2019-02-21T02:35:35.998Z,8.30
2019-02-21T02:38:02.803Z,8.30
2019-02-21T02:40:29.332Z,8.30
2019-02-21T02:42:55.884Z,8.30
2019-02-21T02:45:22.461Z,8.30
2019-02-21T02:47:48.987Z,8.30
2019-02-21T02:50:15.652Z,8.30
2019-02-21T02:52:42.381Z,8.20
2019-02-21T02:55:09.165Z,8.30
2019-02-21T02:57:35.679Z,8.30
2019-02-21T03:00:05.000Z,8.20
2019-02-21T03:02:31.580Z,8.30
2019-02-21T03:04:58.192Z,8.40
2019-02-21T03:07:24.758Z,8.40
2019-02-21T03:09:51.413Z,8.40
2019-02-21T03:12:18.086Z,8.30
2019-02-21T03:14:46.385Z,8.20
2019-02-21T03:17:13.141Z,8.30
2019-02-21T03:19:39.912Z,8.20
2019-02-21T03:22:06.582Z,8.30
2019-02-21T03:24:33.251Z,8.20
2019-02-21T03:26:59.971Z,8.30
2019-02-21T03:29:28.281Z,8.30
2019-02-21T03:31:56.133Z,8.20
2019-02-21T03:34:23.864Z,8.30
2019-02-21T03:36:50.551Z,8.30
2019-02-21T03:39:17.249Z,8.30
2019-02-21T03:41:43.765Z,8.40
2019-02-21T03:44:10.447Z,8.30
2019-02-21T03:46:37.054Z,8.30
2019-02-21T03:49:03.739Z,8.30
2019-02-21T03:51:30.957Z,8.20
2019-02-21T03:53:57.484Z,8.20
2019-02-21T03:56:24.456Z,8.20
2019-02-21T03:58:52.734Z,8.10
2019-02-21T04:01:19.355Z,8.10
2019-02-21T04:03:46.013Z,8.10
2019-02-21T04:06:13.439Z,8.00
2019-02-21T04:08:41.703Z,8.10
2019-02-21T04:11:08.325Z,8.10
2019-02-21T04:13:34.989Z,8.10
2019-02-21T04:16:01.965Z,8.00
2019-02-21T04:18:28.525Z,8.20
2019-02-21T04:20:55.095Z,8.10
2019-02-21T04:23:22.631Z,8.10
2019-02-21T04:25:49.476Z,8.00
2019-02-21T04:28:16.196Z,8.00
2019-02-21T04:30:43.861Z,8.00
2019-02-21T04:33:10.529Z,8.00
2019-02-21T04:35:37.053Z,8.00
2019-02-21T04:38:03.626Z,8.00
2019-02-21T04:40:30.440Z,7.90
2019-02-21T04:42:57.114Z,8.00
2019-02-21T04:45:23.707Z,7.90
2019-02-21T04:47:51.916Z,7.90
2019-02-21T04:50:18.429Z,8.00
2019-02-21T04:52:44.997Z,8.00
2019-02-21T04:55:11.525Z,8.00
2019-02-21T04:57:37.994Z,8.00
2019-02-21T05:00:10.115Z,7.80
2019-02-21T05:02:36.676Z,7.90
2019-02-21T05:05:04.489Z,7.80
2019-02-21T05:07:30.939Z,7.90
2019-02-21T05:09:58.517Z,7.90
2019-02-21T05:12:25.414Z,7.70
2019-02-21T05:14:52.036Z,7.90
2019-02-21T05:17:18.614Z,7.80
2019-02-21T05:19:45.125Z,7.70
2019-02-21T05:22:11.786Z,7.70
2019-02-21T05:24:38.323Z,7.60
2019-02-21T05:27:06.792Z,7.60
2019-02-21T05:29:34.997Z,7.60
2019-02-21T05:32:09.365Z,7.50
2019-02-21T05:34:37.982Z,7.60
2019-02-21T05:37:22.958Z,7.60
2019-02-21T05:39:53.087Z,7.60
2019-02-21T05:42:21.625Z,7.60
2019-02-21T05:44:53.294Z,7.50
2019-02-21T05:47:24.584Z,7.60
2019-02-21T05:49:53.118Z,7.60
2019-02-21T05:52:24.725Z,7.70
2019-02-21T05:55:08.156Z,7.60
2019-02-21T05:57:42.349Z,7.60
2019-02-21T06:00:29.354Z,7.70
2019-02-21T06:03:03.777Z,7.60
2019-02-21T06:05:32.226Z,7.60
2019-02-21T06:08:00.864Z,7.60
2019-02-21T06:10:32.315Z,7.50
2019-02-21T06:13:06.793Z,7.50
2019-02-21T06:15:40.859Z,7.50
2019-02-21T06:18:11.949Z,7.60
2019-02-21T06:20:49.660Z,7.70
2019-02-21T06:23:18.214Z,7.70
2019-02-21T06:25:53.162Z,7.70
2019-02-21T06:28:23.382Z,7.60
2019-02-21T06:30:51.806Z,7.50
2019-02-21T06:33:18.454Z,7.60
2019-02-21T06:35:45.075Z,7.50
2019-02-21T06:38:11.621Z,7.40
2019-02-21T06:40:38.238Z,7.50
2019-02-21T06:43:04.791Z,7.60
2019-02-21T06:45:31.350Z,7.50
2019-02-21T06:47:57.993Z,7.50
2019-02-21T06:50:27.024Z,7.60
2019-02-21T06:52:52.870Z,7.60
2019-02-21T06:55:20.639Z,7.50
2019-02-21T06:57:47.450Z,7.60
2019-02-21T07:00:13.982Z,7.50
2019-02-21T07:02:40.605Z,7.60
2019-02-21T07:05:07.233Z,7.70
2019-02-21T07:07:33.735Z,7.70
2019-02-21T07:10:00.439Z,7.60
2019-02-21T07:12:26.853Z,7.60
2019-02-21T07:14:53.518Z,7.50
2019-02-21T07:17:20.042Z,7.70
2019-02-21T07:19:46.590Z,7.60
2019-02-21T07:22:17.851Z,7.60
2019-02-21T07:24:42.572Z,7.60
2019-02-21T07:27:09.206Z,7.60
2019-02-21T07:29:38.527Z,7.60
2019-02-21T07:32:04.176Z,7.60
2019-02-21T07:34:30.756Z,7.60
2019-02-21T07:36:57.398Z,7.70
2019-02-21T07:39:23.957Z,7.70
2019-02-21T07:41:50.590Z,7.80
2019-02-21T07:44:17.131Z,8.00
2019-02-21T07:46:46.197Z,8.00
2019-02-21T07:49:12.021Z,8.00
2019-02-21T07:51:41.269Z,8.00
2019-02-21T07:54:07.014Z,7.90
2019-02-21T07:56:41.651Z,7.80
2019-02-21T07:59:01.987Z,7.90
2019-02-21T08:01:28.550Z,7.90
2019-02-21T08:03:55.069Z,7.90
2019-02-21T08:06:21.605Z,7.90
2019-02-21T08:08:48.160Z,7.80
2019-02-21T08:11:14.672Z,7.80
2019-02-21T08:13:41.324Z,7.90
2019-02-21T08:16:07.871Z,8.00
2019-02-21T08:18:34.708Z,8.10
2019-02-21T08:21:01.228Z,8.10
2019-02-21T08:23:27.754Z,8.10
2019-02-21T08:25:54.337Z,8.10
2019-02-21T08:28:20.853Z,8.10
2019-02-21T08:30:47.404Z,8.10
2019-02-21T08:33:15.836Z,8.20
2019-02-21T08:35:42.387Z,8.20
2019-02-21T08:38:08.910Z,8.40
2019-02-21T08:40:35.465Z,8.40
2019-02-21T08:43:03.963Z,8.50
2019-02-21T08:45:30.342Z,8.60
2019-02-21T08:47:56.860Z,8.70
2019-02-21T08:50:23.646Z,8.80
2019-02-21T08:52:50.168Z,8.70
2019-02-21T08:55:16.641Z,8.80
2019-02-21T08:57:43.284Z,9.00
2019-02-21T09:00:11.938Z,8.80
2019-02-21T09:02:38.567Z,8.70
2019-02-21T09:05:09.362Z,8.80
2019-02-21T09:07:35.472Z,8.70
2019-02-21T09:10:03.325Z,8.70
2019-02-21T09:12:29.845Z,8.90
2019-02-21T09:14:56.397Z,9.00
2019-02-21T09:17:22.922Z,8.90
2019-02-21T09:19:49.460Z,9.10
2019-02-21T09:22:15.988Z,9.20
2019-02-21T09:24:42.700Z,9.40
2019-02-21T09:27:09.258Z,9.60
2019-02-21T09:29:35.812Z,9.40
2019-02-21T09:32:02.326Z,9.10
2019-02-21T09:34:29.579Z,9.10
2019-02-21T09:36:56.287Z,9.10
2019-02-21T09:39:23.012Z,9.10
2019-02-21T09:41:51.263Z,9.20
2019-02-21T09:44:18.287Z,9.20
2019-02-21T09:46:44.991Z,9.10
2019-02-21T09:49:13.514Z,9.10
2019-02-21T09:51:40.065Z,9.00
2019-02-21T09:54:06.586Z,8.80
2019-02-21T09:56:33.241Z,8.80
2019-02-21T09:58:59.769Z,8.80
2019-02-21T10:01:27.468Z,8.80
2019-02-21T10:03:54.189Z,9.00
2019-02-21T10:06:20.777Z,9.00
2019-02-21T10:08:47.304Z,9.10
2019-02-21T10:11:13.858Z,9.40
2019-02-21T10:13:40.382Z,9.50
2019-02-21T10:16:06.930Z,9.40
2019-02-21T10:18:33.468Z,9.40
2019-02-21T10:21:00.000Z,9.40
2019-02-21T10:23:26.420Z,9.50
2019-02-21T10:25:52.982Z,9.60
2019-02-21T10:28:19.607Z,9.70
2019-02-21T10:30:46.167Z,9.50
2019-02-21T10:33:12.691Z,9.30
2019-02-21T10:35:39.242Z,9.40
2019-02-21T10:38:05.761Z,9.40
2019-02-21T10:40:33.397Z,9.60
2019-02-21T10:43:00.025Z,9.70
2019-02-21T10:45:26.445Z,9.90
2019-02-21T10:47:53.109Z,10.00
2019-02-21T10:50:20.260Z,10.00
2019-02-21T10:52:47.196Z,10.10
2019-02-21T10:55:14.832Z,10.10
2019-02-21T10:57:41.585Z,10.00
2019-02-21T11:00:11.520Z,10.00
2019-02-21T11:02:38.874Z,9.90
2019-02-21T11:05:07.414Z,9.90
2019-02-21T11:07:34.029Z,10.30
2019-02-21T11:10:00.653Z,10.50
2019-02-21T11:12:27.405Z,10.60
2019-02-21T11:14:54.044Z,10.50
2019-02-21T11:17:20.697Z,10.20
2019-02-21T11:19:47.221Z,10.10
2019-02-21T11:22:13.946Z,10.40
2019-02-21T11:24:40.502Z,10.50
2019-02-21T11:27:07.027Z,10.60
2019-02-21T11:29:33.453Z,10.60
2019-02-21T11:31:59.998Z,10.40
2019-02-21T11:34:26.516Z,10.40
2019-02-21T11:36:53.065Z,10.40
2019-02-21T11:39:19.801Z,10.60
2019-02-21T11:41:46.444Z,10.50
2019-02-21T11:44:12.966Z,10.60
2019-02-21T11:46:39.519Z,10.70
2019-02-21T11:49:06.037Z,10.60
2019-02-21T11:51:32.584Z,10.60
2019-02-21T11:53:59.204Z,10.50
2019-02-21T11:56:25.762Z,10.50
2019-02-21T11:58:52.284Z,10.50
2019-02-21T12:01:18.890Z,10.50
2019-02-21T12:03:45.633Z,10.50
2019-02-21T12:06:12.345Z,10.50
2019-02-21T12:08:39.105Z,10.60
2019-02-21T12:11:05.714Z,10.50
2019-02-21T12:13:32.429Z,10.50
2019-02-21T12:15:59.144Z,10.60
2019-02-21T12:18:25.817Z,10.70
2019-02-21T12:20:52.449Z,10.60
2019-02-21T12:23:19.055Z,10.60
2019-02-21T12:25:45.568Z,10.70
2019-02-21T12:28:12.237Z,10.80
2019-02-21T12:30:38.879Z,11.00
2019-02-21T12:33:05.413Z,11.10
2019-02-21T12:35:31.941Z,11.10
2019-02-21T12:37:58.665Z,11.00
2019-02-21T12:40:25.190Z,11.10
2019-02-21T12:42:51.859Z,11.20
2019-02-21T12:45:20.478Z,11.10
2019-02-21T12:47:53.201Z,11.10
2019-02-21T12:50:15.848Z,11.00
2019-02-21T12:52:42.425Z,11.00
2019-02-21T12:55:10.053Z,10.90
2019-02-21T12:57:36.709Z,10.80
2019-02-21T13:00:06.845Z,10.80
2019-02-21T13:02:33.665Z,10.70
2019-02-21T13:05:00.311Z,10.80
2019-02-21T13:07:26.929Z,10.70
2019-02-21T13:09:53.559Z,10.70
2019-02-21T13:12:21.222Z,10.60
2019-02-21T13:14:47.744Z,10.60
2019-02-21T13:17:14.302Z,10.80
2019-02-21T13:19:41.048Z,10.80
2019-02-21T13:22:07.591Z,10.70
2019-02-21T13:24:34.206Z,10.80
2019-02-21T13:27:01.480Z,10.80
2019-02-21T13:29:27.981Z,10.60
2019-02-21T13:31:54.500Z,10.50
2019-02-21T13:34:21.252Z,10.70
2019-02-21T13:36:47.970Z,10.70
2019-02-21T13:39:14.725Z,10.50
2019-02-21T13:41:41.358Z,10.40
2019-02-21T13:44:08.025Z,10.40
2019-02-21T13:46:37.947Z,10.40
2019-02-21T13:49:03.021Z,10.30
2019-02-21T13:51:29.578Z,10.30
2019-02-21T13:53:56.120Z,10.10
2019-02-21T13:56:22.646Z,10.00
2019-02-21T13:58:49.204Z,10.00
2019-02-21T14:01:15.728Z,10.20
2019-02-21T14:03:42.285Z,10.20
2019-02-21T14:06:08.811Z,10.20
2019-02-21T14:08:35.369Z,10.00
2019-02-21T14:11:01.900Z,10.20
2019-02-21T14:13:28.492Z,10.20
2019-02-21T14:15:55.010Z,10.20
2019-02-21T14:18:30.852Z,10.20
2019-02-21T14:20:57.975Z,10.10
2019-02-21T14:23:24.622Z,10.10
2019-02-21T14:25:51.240Z,10.10
2019-02-21T14:28:17.798Z,10.10
2019-02-21T14:30:45.318Z,10.00
2019-02-21T14:33:11.966Z,10.00
2019-02-21T14:35:38.495Z,10.00
2019-02-21T14:38:05.042Z,9.90
2019-02-21T14:40:31.573Z,10.00
2019-02-21T14:42:58.374Z,9.90
2019-02-21T14:45:25.095Z,9.80
2019-02-21T14:47:51.966Z,9.70
2019-02-21T14:50:18.485Z,9.70
2019-02-21T14:52:45.151Z,9.80
2019-02-21T14:55:18.073Z,9.80
2019-02-21T14:57:44.736Z,9.80
2019-02-21T15:00:17.631Z,9.70
2019-02-21T15:02:44.152Z,9.70
2019-02-21T15:05:10.909Z,9.80
2019-02-21T15:07:37.630Z,9.90
2019-02-21T15:10:06.932Z,9.80
2019-02-21T15:12:35.633Z,9.70
2019-02-21T15:15:02.688Z,9.80
2019-02-21T15:17:29.256Z,9.70
2019-02-21T15:19:55.782Z,9.70
2019-02-21T15:22:22.456Z,9.50
2019-02-21T15:24:49.033Z,9.50
2019-02-21T15:27:15.649Z,9.50
2019-02-21T15:29:42.216Z,9.50
2019-02-21T15:32:11.575Z,9.30
2019-02-21T15:34:37.225Z,9.30
2019-02-21T15:37:03.805Z,9.40
2019-02-21T15:39:30.428Z,9.30
2019-02-21T15:41:56.944Z,9.30
2019-02-21T15:44:23.525Z,9.40
2019-02-21T15:46:50.036Z,9.50
2019-02-21T15:49:16.725Z,9.40
2019-02-21T15:51:43.478Z,9.40
2019-02-21T15:54:12.431Z,9.10
2019-02-21T15:56:38.714Z,9.20
2019-02-21T15:59:05.221Z,9.30
2019-02-21T16:01:31.880Z,9.10
2019-02-21T16:03:58.445Z,9.30
2019-02-21T16:06:25.040Z,9.20
2019-02-21T16:08:51.665Z,9.20
2019-02-21T16:11:18.288Z,9.30
2019-02-21T16:13:44.967Z,9.20
2019-02-21T16:16:11.996Z,9.20
2019-02-21T16:18:40.289Z,9.10
2019-02-21T16:21:06.808Z,8.90
2019-02-21T16:23:33.589Z,9.00
2019-02-21T16:26:00.205Z,8.90
2019-02-21T16:28:26.638Z,8.80
2019-02-21T16:30:54.140Z,9.00
2019-02-21T16:33:20.764Z,9.00
2019-02-21T16:35:47.329Z,8.80
2019-02-21T16:38:13.881Z,8.80
2019-02-21T16:40:40.594Z,8.80
2019-02-21T16:43:07.141Z,8.80
2019-02-21T16:45:42.905Z,8.80
2019-02-21T16:48:02.126Z,8.90
2019-02-21T16:50:30.147Z,8.90
2019-02-21T16:52:56.967Z,8.90
2019-02-21T16:55:23.872Z,9.00
2019-02-21T16:57:50.590Z,8.90
2019-02-21T17:00:21.432Z,8.90
2019-02-21T17:02:48.007Z,9.00
2019-02-21T17:05:14.932Z,8.90
2019-02-21T17:07:41.606Z,8.80
2019-02-21T17:10:10.470Z,8.90
2019-02-21T17:12:37.238Z,9.00
2019-02-21T17:15:06.733Z,9.10
2019-02-21T17:17:33.249Z,8.90
2019-02-21T17:19:59.777Z,8.90
2019-02-21T17:22:26.367Z,9.00
2019-02-21T17:24:53.277Z,8.90
2019-02-21T17:27:20.074Z,8.90
2019-02-21T17:29:46.547Z,9.00
2019-02-21T17:32:13.057Z,9.00
2019-02-21T17:34:39.630Z,9.20
2019-02-21T17:37:06.249Z,9.30
2019-02-21T17:39:32.835Z,9.20
2019-02-21T17:41:59.514Z,9.10
2019-02-21T17:44:26.009Z,9.20
2019-02-21T17:46:52.693Z,9.10
2019-02-21T17:49:19.275Z,9.10
2019-02-21T17:51:45.931Z,9.00
2019-02-21T17:54:12.449Z,9.00
2019-02-21T17:56:39.113Z,9.10
2019-02-21T17:59:05.785Z,9.00
2019-02-21T18:01:32.351Z,8.90
2019-02-21T18:03:59.083Z,8.90
2019-02-21T18:06:25.757Z,9.00
2019-02-21T18:08:55.022Z,9.00
2019-02-21T18:11:21.050Z,8.90
2019-02-21T18:13:47.731Z,8.70
2019-02-21T18:16:14.445Z,8.80
2019-02-21T18:18:41.117Z,8.90
2019-02-21T18:21:08.362Z,8.80
2019-02-21T18:23:35.864Z,8.80
2019-02-21T18:26:06.903Z,9.00
2019-02-21T18:28:36.225Z,9.00
2019-02-21T18:31:02.541Z,9.00
2019-02-21T18:33:29.132Z,8.90
2019-02-21T18:35:55.725Z,9.00
2019-02-21T18:38:22.392Z,9.00
2019-02-21T18:40:49.184Z,9.10
2019-02-21T18:43:15.670Z,9.00
2019-02-21T18:45:42.273Z,9.00
2019-02-21T18:48:08.959Z,9.10
2019-02-21T18:50:38.397Z,8.90
2019-02-21T18:53:03.973Z,8.80
2019-02-21T18:55:30.492Z,8.80
2019-02-21T18:57:57.074Z,8.80
2019-02-21T19:00:25.397Z,8.70
2019-02-21T19:02:52.165Z,8.80
2019-02-21T19:05:20.075Z,8.70
2019-02-21T19:07:46.568Z,8.70
2019-02-21T19:10:17.883Z,8.70
2019-02-21T19:12:44.699Z,8.60
2019-02-21T19:15:12.851Z,8.60
2019-02-21T19:17:40.011Z,8.70
2019-02-21T19:20:09.433Z,8.80
2019-02-21T19:22:36.110Z,8.80
2019-02-21T19:25:04.277Z,8.70
2019-02-21T19:27:37.073Z,8.60
2019-02-21T19:29:59.226Z,8.70
2019-02-21T19:32:25.864Z,8.60
2019-02-21T19:34:52.436Z,8.70
2019-02-21T19:37:19.126Z,8.60
2019-02-21T19:39:45.708Z,8.70
2019-02-21T19:42:12.224Z,8.80
2019-02-21T19:44:39.814Z,8.70
2019-02-21T19:47:07.480Z,8.80
2019-02-21T19:49:34.408Z,8.60
2019-02-21T19:52:00.968Z,8.60
2019-02-21T19:54:27.653Z,8.60
2019-02-21T19:56:54.258Z,8.60
2019-02-21T19:59:20.833Z,8.50
2019-02-21T20:01:49.713Z,8.50
2019-02-21T20:04:18.138Z,8.50
2019-02-21T20:06:44.901Z,8.50
2019-02-21T20:09:11.750Z,8.50
2019-02-21T20:11:38.277Z,8.50
2019-02-21T20:14:05.248Z,8.50
2019-02-21T20:16:31.945Z,8.40
2019-02-21T20:18:58.566Z,8.40
2019-02-21T20:21:25.297Z,8.40
2019-02-21T20:23:52.040Z,8.40
2019-02-21T20:26:18.728Z,8.50
2019-02-21T20:28:45.431Z,8.40
2019-02-21T20:31:12.065Z,8.40
2019-02-21T20:33:38.870Z,8.40
2019-02-21T20:36:05.714Z,8.50
2019-02-21T20:38:32.556Z,8.40
2019-02-21T20:40:59.677Z,8.50
2019-02-21T20:43:27.576Z,8.50
2019-02-21T20:45:54.241Z,8.40
2019-02-21T20:48:21.167Z,8.20
2019-02-21T20:50:56.600Z,8.20
2019-02-21T20:53:16.194Z,8.20
2019-02-21T20:55:43.930Z,8.20
2019-02-21T20:58:11.670Z,8.20
2019-02-21T21:00:38.825Z,8.30
2019-02-21T21:03:05.524Z,8.30
2019-02-21T21:05:32.214Z,8.30
2019-02-21T21:08:00.442Z,8.20
2019-02-21T21:10:27.150Z,8.30
2019-02-21T21:12:54.269Z,8.30
2019-02-21T21:15:21.028Z,8.20
2019-02-21T21:17:47.848Z,8.10
2019-02-21T21:20:16.795Z,8.20
2019-02-21T21:22:44.218Z,8.20
2019-02-21T21:25:14.997Z,8.30
2019-02-21T21:27:41.958Z,8.20
2019-02-21T21:30:11.021Z,8.20
2019-02-21T21:32:38.443Z,8.10
2019-02-21T21:35:05.210Z,8.20
2019-02-21T21:37:31.934Z,8.20
2019-02-21T21:39:58.628Z,8.20
2019-02-21T21:42:25.265Z,8.10
2019-02-21T21:44:51.902Z,8.10
2019-02-21T21:47:18.488Z,8.10
2019-02-21T21:49:45.110Z,8.20
2019-02-21T21:52:11.685Z,8.10
2019-02-21T21:54:38.211Z,8.20
2019-02-21T21:57:04.826Z,8.10
2019-02-21T21:59:31.405Z,8.00
2019-02-21T22:01:57.943Z,7.90
2019-02-21T22:04:24.497Z,8.10
2019-02-21T22:06:51.129Z,8.20
2019-02-21T22:09:17.974Z,8.30
2019-02-21T22:11:44.614Z,8.10
2019-02-21T22:14:11.396Z,8.20
2019-02-21T22:16:39.935Z,8.00
2019-02-21T22:19:07.332Z,8.00
2019-02-21T22:21:33.982Z,8.00
2019-02-21T22:24:01.049Z,8.00
2019-02-21T22:26:28.216Z,8.10
2019-02-21T22:28:54.999Z,8.00
2019-02-21T22:31:22.738Z,8.10
2019-02-21T22:33:49.909Z,8.10
2019-02-21T22:36:19.524Z,8.10
2019-02-21T22:38:45.794Z,8.10
2019-02-21T22:41:13.009Z,8.10
2019-02-21T22:43:39.682Z,8.20
2019-02-21T22:46:06.302Z,8.20
2019-02-21T22:48:33.081Z,8.20
2019-02-21T22:50:59.763Z,8.20
2019-02-21T22:53:26.547Z,8.10
2019-02-21T22:55:53.169Z,8.10
2019-02-21T22:58:20.086Z,8.10
2019-02-21T23:00:55.396Z,8.10
2019-02-21T23:03:27.485Z,8.10
2019-02-21T23:06:23.438Z,8.10
2019-02-21T23:08:52.626Z,8.10
2019-02-21T23:11:19.640Z,8.20
2019-02-21T23:13:48.101Z,8.10
2019-02-21T23:16:14.750Z,8.10
2019-02-21T23:18:41.412Z,8.10
2019-02-21T23:21:07.987Z,8.20
2019-02-21T23:23:34.614Z,8.10
2019-02-21T23:26:01.225Z,8.10
2019-02-21T23:28:27.805Z,8.10
2019-02-21T23:30:54.477Z,8.20
2019-02-21T23:33:22.269Z,8.20
2019-02-21T23:35:48.878Z,8.20
2019-02-21T23:38:15.933Z,8.20
2019-02-21T23:40:42.497Z,8.20
2019-02-21T23:43:09.016Z,8.10
2019-02-21T23:45:35.624Z,8.20
2019-02-21T23:48:02.238Z,8.10
2019-02-21T23:50:28.805Z,8.10
2019-02-21T23:52:55.442Z,8.20
2019-02-21T23:55:22.050Z,8.10
2019-02-21T23:57:48.728Z,8.10
